Time;durP1;ratioP1;P1;durP2;ratioP2;P2;SDS_P1;SDS_P2;PMS_P1;PMS_P2;Temp;Humidity;BMP_temperature;BMP_pressure;BME280_temperature;BME280_humidity;BME280_pressure;Samples;Min_cycle;Max_cycle;Signal;HPM_P1;HPM_P2
2022/12/02 00:01:18;;;;;;;8.13;7.17;;;;;;;4.32;67.13;95214.38;5019444;28;20239;-67
2022/12/02 00:03:44;;;;;;;8.73;7.53;;;;;;;4.43;67.62;95223.06;5025383;28;20226;-67
2022/12/02 00:06:39;;;;;;;8.70;7.40;;;;;;;4.46;67.31;95219.41;5022326;28;20250;-67
2022/12/02 00:09:23;;;;;;;9.90;7.77;;;;;;;4.26;67.92;95213.03;4987642;28;20232;-67
2022/12/02 00:11:49;;;;;;;8.83;7.73;;;;;;;4.27;68.54;95213.88;4987314;28;20707;-67
2022/12/02 00:14:27;;;;;;;9.33;7.53;;;;;;;4.17;68.67;95213.69;4989946;28;20226;-67
2022/12/02 00:16:53;;;;;;;7.63;6.60;;;;;;;4.31;68.31;95208.34;4986916;28;20179;-68
2022/12/02 00:19:18;;;;;;;7.87;6.80;;;;;;;4.31;68.43;95215.34;4990154;28;20223;-67
2022/12/02 00:21:44;;;;;;;10.17;7.63;;;;;;;4.31;68.70;95210.94;4986937;28;20231;-67
2022/12/02 00:24:10;;;;;;;10.40;8.70;;;;;;;4.45;68.43;95222.97;4989818;28;20222;-68
2022/12/02 00:26:35;;;;;;;9.17;7.80;;;;;;;4.33;69.16;95209.06;4986486;28;20219;-68
2022/12/02 00:29:01;;;;;;;8.70;7.27;;;;;;;4.40;68.61;95212.06;4989860;28;20194;-68
2022/12/02 00:31:26;;;;;;;9.97;8.07;;;;;;;4.43;68.49;95212.66;4999278;28;20278;-67
2022/12/02 00:33:52;;;;;;;9.53;7.67;;;;;;;4.50;68.76;95220.88;4989019;28;20254;-67
2022/12/02 00:36:18;;;;;;;8.77;7.83;;;;;;;4.12;70.04;95219.22;5003021;28;20226;-66
2022/12/02 00:38:43;;;;;;;10.40;8.63;;;;;;;4.40;69.89;95217.25;4978589;28;20256;-67
2022/12/02 00:41:08;;;;;;;11.33;9.10;;;;;;;4.50;69.48;95207.03;4988955;28;20218;-67
2022/12/02 00:46:31;;;;;;;12.17;10.10;;;;;;;4.37;69.84;95209.69;4970082;28;20239;-67
2022/12/02 00:48:58;;;;;;;12.17;9.57;;;;;;;4.27;70.66;95209.50;4948103;28;20327;-67
2022/12/02 00:51:24;;;;;;;11.33;8.73;;;;;;;4.37;69.94;95201.88;4949911;28;20634;-67
2022/12/02 00:53:50;;;;;;;12.83;8.70;;;;;;;4.34;70.18;95210.72;4947143;28;20255;-67
2022/12/02 00:56:15;;;;;;;8.27;7.33;;;;;;;4.36;69.99;95202.81;4949160;28;21015;-67
2022/12/02 00:58:41;;;;;;;7.63;6.83;;;;;;;4.43;69.95;95206.63;4941898;28;20254;-67
2022/12/02 01:01:06;;;;;;;8.33;6.70;;;;;;;4.38;70.02;95195.72;4939920;28;20251;-67
2022/12/02 01:03:32;;;;;;;7.43;6.07;;;;;;;4.38;69.59;95196.56;4947899;28;20282;-67
2022/12/02 01:05:58;;;;;;;6.60;5.90;;;;;;;4.39;69.66;95207.81;4948303;28;20240;-67
2022/12/02 01:08:26;;;;;;;7.07;6.37;;;;;;;4.32;69.88;95194.38;4947360;28;20232;-67
2022/12/02 01:10:52;;;;;;;5.37;4.87;;;;;;;4.33;70.00;95197.81;4943664;28;20196;-67
2022/12/02 01:13:18;;;;;;;5.60;5.00;;;;;;;4.36;69.51;95198.44;4942130;28;20203;-67
2022/12/02 01:15:43;;;;;;;5.37;4.80;;;;;;;4.39;69.53;95202.59;4941716;28;20600;-68
2022/12/02 01:18:09;;;;;;;5.40;4.90;;;;;;;4.39;69.20;95200.00;4940662;28;20232;-67
2022/12/02 01:20:34;;;;;;;5.53;4.50;;;;;;;4.37;69.47;95189.69;4943461;28;20263;-67
2022/12/02 01:22:59;;;;;;;5.83;5.20;;;;;;;4.27;69.74;95185.25;4972219;28;20208;-67
2022/12/02 01:25:25;;;;;;;6.37;5.77;;;;;;;4.29;70.25;95196.38;5033458;28;20210;-67
2022/12/02 01:27:50;;;;;;;7.60;6.13;;;;;;;4.27;70.07;95187.84;5022542;28;20229;-67
2022/12/02 01:30:16;;;;;;;7.03;5.90;;;;;;;4.40;70.06;95193.84;5021408;28;20222;-67
2022/12/02 01:32:41;;;;;;;7.67;6.00;;;;;;;4.41;69.82;95185.94;5024902;28;20275;-67
2022/12/02 01:35:07;;;;;;;7.17;5.40;;;;;;;4.37;69.77;95192.28;5039696;28;20198;-66
2022/12/02 01:37:32;;;;;;;7.97;5.83;;;;;;;4.37;69.72;95191.44;5042542;28;20186;-66
2022/12/02 01:39:58;;;;;;;6.47;4.90;;;;;;;4.40;69.73;95193.84;5044270;28;20248;-66
2022/12/02 01:42:23;;;;;;;5.07;4.53;;;;;;;4.32;69.39;95188.34;5038207;28;20218;-66
2022/12/02 01:44:49;;;;;;;6.63;5.23;;;;;;;4.40;69.65;95180.81;5044877;28;20247;-66
2022/12/02 01:47:14;;;;;;;4.93;4.43;;;;;;;4.40;69.65;95188.63;5042177;28;20256;-66
2022/12/02 01:49:40;;;;;;;5.13;4.63;;;;;;;4.40;69.71;95184.25;5041382;28;20186;-66
2022/12/02 01:52:06;;;;;;;5.63;4.73;;;;;;;4.45;69.55;95194.34;5043226;28;20233;-66
2022/12/02 01:54:33;;;;;;;5.80;5.20;;;;;;;4.50;69.70;95191.41;5043669;28;20250;-67
2022/12/02 01:56:58;;;;;;;5.27;4.40;;;;;;;4.47;69.77;95191.63;5043647;28;20214;-66
2022/12/02 01:59:25;;;;;;;6.63;5.07;;;;;;;4.43;69.92;95194.44;5041879;28;20233;-68
2022/12/02 02:01:50;;;;;;;5.13;4.60;;;;;;;4.33;69.12;95193.47;5047201;28;20226;-68
2022/12/02 02:04:17;;;;;;;5.00;4.50;;;;;;;3.98;70.58;95207.19;5043414;28;20233;-68
2022/12/02 02:06:45;;;;;;;5.87;4.80;;;;;;;4.19;70.40;95201.41;5037081;28;20279;-68
2022/12/02 02:09:10;;;;;;;6.53;5.60;;;;;;;4.19;70.41;95201.41;5044524;28;20276;-68
2022/12/02 02:11:38;;;;;;;6.03;5.03;;;;;;;4.22;70.65;95206.38;5032326;28;20221;-68
2022/12/02 02:14:05;;;;;;;6.23;5.10;;;;;;;4.29;70.36;95202.41;5037851;28;20191;-68
2022/12/02 02:16:31;;;;;;;5.77;5.17;;;;;;;4.32;70.58;95207.41;5023660;28;20198;-67
2022/12/02 02:18:57;;;;;;;5.93;5.33;;;;;;;4.36;71.03;95205.44;5025266;28;20219;-66
2022/12/02 02:21:30;;;;;;;6.13;5.53;;;;;;;4.40;71.00;95199.03;5028609;28;20222;-66
2022/12/02 02:23:55;;;;;;;6.60;5.97;;;;;;;4.37;70.38;95201.88;5024799;28;20749;-66
2022/12/02 02:26:22;;;;;;;6.63;5.43;;;;;;;4.37;70.61;95205.28;5024564;28;20230;-66
2022/12/02 02:28:47;;;;;;;6.10;5.50;;;;;;;4.16;71.20;95207.66;5025972;28;20194;-66
2022/12/02 02:31:13;;;;;;;6.50;5.80;;;;;;;4.26;70.89;95207.00;5026280;28;20747;-67
2022/12/02 02:33:39;;;;;;;6.47;5.87;;;;;;;4.32;70.80;95207.41;5035943;28;20223;-67
2022/12/02 02:36:07;;;;;;;6.23;5.40;;;;;;;4.37;70.13;95215.72;5024133;28;20241;-67
2022/12/02 02:38:34;;;;;;;6.07;5.37;;;;;;;4.28;70.85;95202.53;5031534;28;20328;-67
2022/12/02 02:41:00;;;;;;;6.57;5.97;;;;;;;4.33;70.48;95203.88;5044081;28;20233;-67
2022/12/02 02:43:28;;;;;;;6.60;5.53;;;;;;;4.36;70.16;95208.03;5045106;28;20327;-67
2022/12/02 02:45:54;;;;;;;5.90;5.30;;;;;;;4.46;70.13;95213.38;5040331;28;20257;-67
2022/12/02 02:48:21;;;;;;;5.63;4.83;;;;;;;4.48;70.30;95216.72;5027324;28;20232;-67
2022/12/02 02:50:47;;;;;;;6.03;5.23;;;;;;;4.54;70.11;95209.28;5043834;28;20233;-67
2022/12/02 02:53:15;;;;;;;5.40;4.90;;;;;;;4.52;70.37;95226.81;5036504;28;20221;-67
2022/12/02 02:55:41;;;;;;;6.83;6.03;;;;;;;4.26;71.08;95228.66;5044164;28;20273;-66
2022/12/02 02:58:20;;;;;;;8.30;7.50;;;;;;;4.28;70.63;95226.78;5021126;28;20222;-66
2022/12/02 03:01:12;;;;;;;8.33;7.53;;;;;;;4.25;70.83;95236.56;5028275;28;20276;-67
2022/12/02 03:03:49;;;;;;;8.97;8.17;;;;;;;4.24;70.81;95230.53;5029641;28;20332;-68
2022/12/02 03:06:15;;;;;;;9.73;8.83;;;;;;;4.11;70.49;95224.53;5025053;28;20233;-68
2022/12/02 03:08:44;;;;;;;9.80;8.80;;;;;;;4.23;70.54;95215.88;5028958;28;20241;-68
2022/12/02 03:11:10;;;;;;;11.53;8.27;;;;;;;4.18;70.75;95228.38;5045691;28;20189;-67
2022/12/02 03:13:38;;;;;;;10.20;9.20;;;;;;;4.07;71.46;95229.13;5041941;28;20252;-66
2022/12/02 03:16:07;;;;;;;10.10;9.20;;;;;;;4.30;71.26;95231.88;5022904;28;20233;-66
2022/12/02 03:18:33;;;;;;;9.60;8.67;;;;;;;4.05;70.59;95231.00;5023300;28;20221;-66
2022/12/02 03:20:59;;;;;;;10.07;9.17;;;;;;;4.20;70.40;95229.09;5021699;28;20246;-66
2022/12/02 03:23:25;;;;;;;11.03;9.63;;;;;;;4.17;70.03;95231.88;5017914;28;20226;-67
2022/12/02 03:25:51;;;;;;;10.10;9.03;;;;;;;4.21;70.14;95235.97;5026856;28;20182;-67
2022/12/02 03:28:17;;;;;;;12.67;10.17;;;;;;;4.30;70.17;95231.88;5015285;28;20305;-66
2022/12/02 03:30:43;;;;;;;10.13;9.13;;;;;;;4.24;70.48;95235.75;5038693;28;20218;-67
2022/12/02 03:33:08;;;;;;;10.00;9.10;;;;;;;4.10;70.51;95234.09;5042033;28;20221;-67
2022/12/02 03:35:34;;;;;;;10.83;9.77;;;;;;;4.24;70.55;95234.91;5035752;28;20236;-66
2022/12/02 03:38:00;;;;;;;10.17;9.07;;;;;;;4.31;70.83;95230.94;5023708;28;20195;-68
2022/12/02 03:40:25;;;;;;;10.13;9.07;;;;;;;4.38;70.43;95246.03;5019433;28;20261;-68
2022/12/02 03:42:51;;;;;;;10.33;9.03;;;;;;;4.44;70.31;95244.75;5026158;28;20256;-68
2022/12/02 03:45:17;;;;;;;9.53;8.53;;;;;;;4.34;70.81;95247.16;5024849;28;20340;-67
2022/12/02 03:47:43;;;;;;;9.97;8.57;;;;;;;4.38;70.43;95243.44;5023654;28;20218;-67
2022/12/02 03:50:10;;;;;;;8.33;7.53;;;;;;;4.23;70.94;95244.50;5022971;28;20266;-67
2022/12/02 03:52:36;;;;;;;7.73;6.93;;;;;;;4.16;70.63;95253.66;5021002;28;20191;-67
2022/12/02 03:55:02;;;;;;;7.57;6.77;;;;;;;4.26;70.27;95259.91;5022956;28;20277;-68
2022/12/02 03:57:31;;;;;;;8.33;7.53;;;;;;;4.22;70.81;95255.84;5025872;28;20280;-67
2022/12/02 03:59:56;;;;;;;8.20;6.70;;;;;;;4.36;70.83;95254.88;5026064;28;20291;-67
2022/12/02 04:02:22;;;;;;;9.53;7.23;;;;;;;4.42;70.76;95244.84;5015826;28;20227;-67
2022/12/02 04:04:47;;;;;;;8.53;7.57;;;;;;;4.44;70.58;95257.78;5032994;28;20186;-67
2022/12/02 04:07:12;;;;;;;8.13;7.33;;;;;;;4.40;70.89;95254.53;5024643;28;20271;-67
2022/12/02 04:09:38;;;;;;;7.43;6.73;;;;;;;4.52;70.27;95252.03;5018582;28;20210;-67
2022/12/02 04:12:03;;;;;;;8.03;7.23;;;;;;;4.39;70.71;95265.09;5025009;28;20226;-67
2022/12/02 04:14:29;;;;;;;7.63;6.90;;;;;;;4.53;70.57;95261.50;5018982;28;20214;-67
2022/12/02 04:16:54;;;;;;;7.60;6.80;;;;;;;4.52;70.21;95254.63;5022582;28;20276;-67
2022/12/02 04:19:20;;;;;;;7.57;6.47;;;;;;;4.53;70.42;95256.28;5023186;28;20204;-66
2022/12/02 04:21:46;;;;;;;7.63;6.83;;;;;;;4.50;70.10;95254.72;5021506;28;20234;-66
2022/12/02 04:24:11;;;;;;;7.67;6.87;;;;;;;4.39;70.07;95260.69;5024822;28;20294;-66
2022/12/02 04:26:37;;;;;;;8.70;6.73;;;;;;;4.41;70.52;95263.19;5036727;28;20610;-66
2022/12/02 04:29:02;;;;;;;9.07;7.77;;;;;;;4.50;70.34;95256.50;5018409;28;20186;-67
2022/12/02 04:31:27;;;;;;;9.40;8.00;;;;;;;4.40;70.25;95258.91;5016508;28;20214;-67
2022/12/02 04:33:53;;;;;;;7.80;7.00;;;;;;;4.54;69.57;95263.16;5024761;28;20252;-67
2022/12/02 04:36:18;;;;;;;8.50;7.70;;;;;;;4.15;70.21;95263.25;5025007;28;20234;-67
2022/12/02 04:38:44;;;;;;;9.70;8.23;;;;;;;4.09;71.25;95263.69;5023286;28;20459;-67
2022/12/02 04:41:09;;;;;;;10.80;9.10;;;;;;;4.05;70.95;95266.59;5025931;28;20202;-67
2022/12/02 04:43:35;;;;;;;12.23;9.93;;;;;;;4.00;71.97;95271.28;5022085;28;20314;-67
2022/12/02 04:46:00;;;;;;;12.27;9.77;;;;;;;4.04;71.67;95270.97;5022860;28;20233;-67
2022/12/02 04:48:26;;;;;;;15.93;10.37;;;;;;;4.19;71.00;95279.47;5024264;28;20235;-67
2022/12/02 04:50:51;;;;;;;14.77;10.93;;;;;;;4.27;70.73;95274.56;5026920;28;20234;-67
2022/12/02 04:53:16;;;;;;;13.30;10.97;;;;;;;4.29;71.36;95270.09;5019556;28;20309;-68
2022/12/02 04:55:45;;;;;;;15.53;10.87;;;;;;;4.27;70.71;95271.13;5021293;28;20304;-68
2022/12/02 04:58:10;;;;;;;12.70;10.47;;;;;;;4.20;71.54;95268.16;5037290;28;20221;-68
2022/12/02 05:00:36;;;;;;;14.73;12.23;;;;;;;4.27;71.65;95277.16;5046293;28;20233;-68
2022/12/02 05:03:01;;;;;;;17.07;12.23;;;;;;;4.39;71.50;95275.50;5031142;28;20249;-68
2022/12/02 05:05:27;;;;;;;14.60;11.77;;;;;;;4.37;71.63;95278.19;5026582;28;20242;-68
2022/12/02 05:07:52;;;;;;;16.13;12.30;;;;;;;4.43;71.27;95277.75;5025250;28;20186;-68
2022/12/02 05:10:18;;;;;;;13.77;11.60;;;;;;;4.39;71.16;95276.31;5040961;28;20239;-68
2022/12/02 05:12:43;;;;;;;14.43;11.80;;;;;;;4.31;70.94;95278.63;5037920;28;20265;-68
2022/12/02 05:15:09;;;;;;;16.17;11.97;;;;;;;4.25;70.60;95279.06;5034476;28;20226;-67
2022/12/02 05:17:34;;;;;;;15.97;11.50;;;;;;;4.31;70.87;95283.84;5040863;28;20221;-68
2022/12/02 05:20:00;;;;;;;16.73;11.67;;;;;;;4.31;70.81;95277.81;5032161;28;20248;-68
2022/12/02 05:22:25;;;;;;;17.07;11.80;;;;;;;4.38;70.80;95279.03;5043174;28;20191;-68
2022/12/02 05:24:51;;;;;;;17.23;12.17;;;;;;;4.36;70.81;95273.94;5039719;28;20232;-68
2022/12/02 05:27:17;;;;;;;15.17;11.27;;;;;;;4.34;71.05;95280.19;5039309;28;20218;-68
2022/12/02 05:29:42;;;;;;;16.23;11.93;;;;;;;4.38;71.13;95279.88;5041802;28;20240;-69
2022/12/02 05:32:08;;;;;;;14.37;10.80;;;;;;;4.35;71.32;95287.06;5040098;28;20185;-66
2022/12/02 05:34:33;;;;;;;12.37;10.13;;;;;;;4.48;70.83;95294.84;5038113;28;20192;-67
2022/12/02 05:36:58;;;;;;;14.47;12.10;;;;;;;4.43;70.69;95295.97;5035603;28;20312;-68
2022/12/02 05:39:24;;;;;;;16.70;12.27;;;;;;;4.52;70.84;95291.09;5040563;28;20222;-69
2022/12/02 05:41:49;;;;;;;14.47;11.80;;;;;;;4.52;70.49;95285.88;5039526;28;20222;-68
2022/12/02 05:44:20;;;;;;;16.53;13.47;;;;;;;4.45;70.25;95289.84;5041816;28;20295;-68
2022/12/02 05:46:45;;;;;;;16.87;13.20;;;;;;;4.41;71.24;95297.88;5036236;28;20194;-66
2022/12/02 05:49:18;;;;;;;16.57;12.60;;;;;;;4.45;71.11;95297.66;5039397;28;20228;-67
2022/12/02 05:51:43;;;;;;;15.03;11.80;;;;;;;4.40;71.15;95293.59;5043386;28;20228;-67
2022/12/02 05:54:17;;;;;;;17.67;13.47;;;;;;;4.37;71.67;95301.63;5037698;28;20317;-68
2022/12/02 05:56:42;;;;;;;16.03;13.13;;;;;;;4.38;71.48;95305.91;5042312;28;20221;-68
2022/12/02 05:59:13;;;;;;;15.17;12.07;;;;;;;4.47;71.53;95301.00;5040648;28;20233;-68
2022/12/02 06:01:39;;;;;;;16.47;13.17;;;;;;;4.50;70.56;95306.81;5041865;28;20236;-68
2022/12/02 06:04:14;;;;;;;14.70;12.57;;;;;;;4.51;71.11;95305.03;5037364;28;20226;-68
2022/12/02 06:06:43;;;;;;;16.80;12.97;;;;;;;4.45;70.86;95297.66;5039285;28;20280;-68
2022/12/02 06:09:17;;;;;;;16.83;14.33;;;;;;;4.56;70.79;95308.16;5043573;28;20225;-67
2022/12/02 06:11:44;;;;;;;13.70;12.03;;;;;;;4.60;70.44;95313.03;5040544;28;20217;-68
2022/12/02 06:14:21;;;;;;;15.40;12.70;;;;;;;4.64;70.14;95326.66;5039291;28;20471;-68
2022/12/02 06:17:00;;;;;;;13.77;12.37;;;;;;;4.47;70.33;95324.44;5036923;28;20602;-67
2022/12/02 06:19:47;;;;;;;13.53;11.83;;;;;;;4.63;69.60;95336.25;5042332;28;20262;-68
2022/12/02 06:22:25;;;;;;;12.93;11.37;;;;;;;4.54;70.22;95330.84;5036996;28;20253;-68
2022/12/02 06:24:54;;;;;;;12.90;11.60;;;;;;;4.07;72.09;95335.00;5040895;28;20237;-66
2022/12/02 06:27:21;;;;;;;12.80;10.70;;;;;;;4.06;72.88;95335.91;5040516;28;20248;-64
2022/12/02 06:29:51;;;;;;;12.20;10.90;;;;;;;4.12;72.29;95331.13;5047118;28;20240;-66
2022/12/02 06:32:22;;;;;;;15.80;12.33;;;;;;;4.12;72.31;95335.50;5051889;28;20245;-65
2022/12/02 06:34:50;;;;;;;15.07;13.43;;;;;;;4.28;72.88;95338.72;5040577;28;20225;-68
2022/12/02 06:37:21;;;;;;;15.10;13.40;;;;;;;4.40;72.53;95329.22;5036742;28;20218;-67
2022/12/02 06:39:52;;;;;;;16.53;14.00;;;;;;;4.56;71.86;95328.97;5044538;28;20257;-67
2022/12/02 06:42:31;;;;;;;15.47;13.10;;;;;;;4.83;70.82;95342.66;5048182;28;20267;-67
2022/12/02 06:45:19;;;;;;;15.97;13.43;;;;;;;4.83;70.47;95332.25;5044651;28;20225;-67
2022/12/02 06:47:49;;;;;;;16.03;13.97;;;;;;;4.88;70.30;95341.50;5042533;28;20214;-67
2022/12/02 06:50:23;;;;;;;17.80;13.80;;;;;;;4.99;70.19;95334.59;5057672;28;20275;-67
2022/12/02 06:52:48;;;;;;;16.27;12.87;;;;;;;4.88;70.38;95338.91;5022104;28;20193;-67
2022/12/02 06:55:34;;;;;;;15.93;14.23;;;;;;;4.84;70.74;95335.69;5038770;28;20322;-67
2022/12/02 06:58:10;;;;;;;16.73;14.20;;;;;;;4.83;71.32;95347.03;5054998;28;20232;-69
2022/12/02 07:00:37;;;;;;;15.63;12.17;;;;;;;4.76;71.12;95338.84;5040973;28;20249;-69
2022/12/02 07:03:04;;;;;;;15.63;12.77;;;;;;;4.79;71.19;95333.41;5045087;28;20222;-69
2022/12/02 07:05:29;;;;;;;16.77;13.97;;;;;;;4.84;71.14;95336.53;5041033;28;20214;-69
2022/12/02 07:07:55;;;;;;;18.23;14.33;;;;;;;4.98;70.78;95337.31;5048077;28;20217;-69
2022/12/02 07:10:26;;;;;;;18.13;14.53;;;;;;;5.03;70.30;95343.03;5042681;28;20178;-68
2022/12/02 07:12:54;;;;;;;19.93;15.63;;;;;;;5.08;70.34;95346.97;5035625;28;20221;-69
2022/12/02 07:15:29;;;;;;;20.77;16.63;;;;;;;5.14;69.68;95340.47;5027058;28;20225;-68
2022/12/02 07:18:21;;;;;;;22.87;17.97;;;;;;;5.27;69.77;95350.84;5024871;28;20222;-70
2022/12/02 07:20:47;;;;;;;20.47;16.90;;;;;;;5.34;69.52;95340.81;5024464;28;20294;-67
2022/12/02 07:23:13;;;;;;;22.67;19.73;;;;;;;5.39;69.19;95356.94;5049247;28;20190;-67
2022/12/02 07:25:45;;;;;;;24.27;19.97;;;;;;;5.34;69.06;95357.28;5017563;28;20201;-67
2022/12/02 07:28:20;;;;;;;23.80;19.27;;;;;;;5.24;69.10;95351.09;5017375;28;20273;-66
2022/12/02 07:30:53;;;;;;;25.03;19.80;;;;;;;5.27;69.42;95346.47;5023319;28;20249;-67
2022/12/02 07:33:19;;;;;;;24.10;19.67;;;;;;;5.28;69.67;95347.31;5047924;28;20229;-67
2022/12/02 07:35:44;;;;;;;25.67;20.57;;;;;;;5.27;69.88;95340.44;5049280;28;20280;-66
2022/12/02 07:38:09;;;;;;;23.73;20.57;;;;;;;5.29;69.75;95349.81;5036373;28;20186;-67
2022/12/02 07:40:35;;;;;;;22.93;20.50;;;;;;;5.43;69.02;95354.00;5047177;28;20283;-67
2022/12/02 07:43:00;;;;;;;24.67;18.90;;;;;;;5.40;69.00;95359.47;5043329;28;20280;-67
2022/12/02 07:45:26;;;;;;;25.30;19.10;;;;;;;5.35;68.63;95355.53;5040751;28;20271;-67
2022/12/02 07:47:51;;;;;;;20.77;18.07;;;;;;;5.38;68.61;95363.13;5023404;28;20280;-66
2022/12/02 07:50:17;;;;;;;27.73;23.13;;;;;;;5.29;69.13;95364.59;5038561;28;20225;-66
2022/12/02 07:52:42;;;;;;;22.73;19.57;;;;;;;5.36;69.15;95360.59;5043575;28;20182;-66
2022/12/02 07:55:08;;;;;;;23.63;19.87;;;;;;;5.42;68.91;95369.75;5037385;28;20226;-66
2022/12/02 07:57:33;;;;;;;26.40;22.03;;;;;;;5.54;69.09;95374.09;5030420;28;20317;-66
2022/12/02 07:59:59;;;;;;;33.07;24.57;;;;;;;5.56;68.94;95376.56;5014007;28;20265;-66
2022/12/02 08:02:24;;;;;;;22.83;18.10;;;;;;;5.61;68.33;95372.69;5021174;28;20250;-66
2022/12/02 08:04:50;;;;;;;23.93;20.47;;;;;;;5.55;68.02;95380.13;5022956;28;20197;-66
2022/12/02 08:07:15;;;;;;;23.70;18.20;;;;;;;5.30;68.79;95368.88;5024830;28;20228;-68
2022/12/02 08:09:41;;;;;;;22.63;18.73;;;;;;;5.43;69.12;95376.66;5022411;28;20218;-68
2022/12/02 08:12:06;;;;;;;24.07;20.20;;;;;;;4.78;71.35;95375.19;5021760;28;20233;-68
2022/12/02 08:14:32;;;;;;;25.40;20.03;;;;;;;5.07;70.87;95386.16;5031203;28;20222;-67
2022/12/02 08:16:57;;;;;;;22.73;20.30;;;;;;;5.08;70.68;95382.63;5021771;28;21230;-68
2022/12/02 08:19:22;;;;;;;20.57;18.07;;;;;;;4.92;71.19;95376.81;5023235;28;20265;-68
2022/12/02 08:21:48;;;;;;;22.57;19.57;;;;;;;5.04;70.32;95378.56;5020829;28;20234;-66
2022/12/02 08:24:13;;;;;;;20.90;18.70;;;;;;;5.23;69.72;95378.09;5022842;28;20221;-69
2022/12/02 08:26:39;;;;;;;22.00;18.10;;;;;;;5.16;69.17;95380.31;5022685;28;20284;-68
2022/12/02 08:29:04;;;;;;;22.03;18.13;;;;;;;5.20;69.38;95373.91;5016788;28;20209;-67
2022/12/02 08:31:29;;;;;;;22.40;19.83;;;;;;;5.17;69.84;95386.34;5037091;28;20185;-66
2022/12/02 08:33:55;;;;;;;23.23;20.63;;;;;;;5.37;68.76;95388.34;5034517;28;20222;-68
2022/12/02 08:36:21;;;;;;;22.53;19.83;;;;;;;5.38;68.52;95382.19;5043356;28;20223;-68
2022/12/02 08:38:47;;;;;;;24.83;21.20;;;;;;;5.45;68.80;95379.97;5039586;28;20257;-67
2022/12/02 08:41:13;;;;;;;25.63;20.40;;;;;;;5.50;68.37;95383.91;5031707;28;20285;-69
2022/12/02 08:43:38;;;;;;;23.13;20.73;;;;;;;5.46;68.59;95386.88;5044554;28;20217;-68
2022/12/02 08:46:32;;;;;;;25.30;22.17;;;;;;;5.26;70.10;95396.94;5024077;28;20245;-67
2022/12/02 08:48:58;;;;;;;23.67;21.20;;;;;;;5.40;68.78;95389.91;5032296;28;20222;-67
2022/12/02 08:51:24;;;;;;;24.10;21.37;;;;;;;5.48;68.89;95401.47;5036569;28;20328;-68
2022/12/02 08:53:50;;;;;;;23.73;20.87;;;;;;;5.61;68.51;95396.16;5036478;28;20218;-68
2022/12/02 08:56:15;;;;;;;25.77;21.00;;;;;;;5.71;68.07;95397.16;5016275;28;20222;-67
2022/12/02 08:58:40;;;;;;;28.30;21.10;;;;;;;5.74;67.81;95407.34;5023568;28;20277;-68
2022/12/02 09:01:06;;;;;;;28.87;21.47;;;;;;;5.70;67.75;95399.88;5035163;28;20304;-68
2022/12/02 09:03:32;;;;;;;28.23;23.03;;;;;;;5.70;67.47;95400.72;5017951;28;20245;-68
2022/12/02 09:05:57;;;;;;;25.97;22.67;;;;;;;5.67;67.65;95393.13;5025801;28;20238;-68
2022/12/02 09:08:23;;;;;;;27.77;22.93;;;;;;;5.65;67.46;95396.78;5035130;28;20226;-68
2022/12/02 09:10:48;;;;;;;26.97;21.43;;;;;;;5.39;67.72;95388.25;5020398;28;20183;-68
2022/12/02 09:13:14;;;;;;;25.23;22.53;;;;;;;5.64;67.88;95397.72;5015898;28;20316;-68
2022/12/02 09:15:39;;;;;;;25.20;21.80;;;;;;;5.71;67.17;95389.31;5019369;28;20257;-68
2022/12/02 09:18:05;;;;;;;25.53;20.10;;;;;;;5.78;66.91;95389.72;5020714;28;20305;-67
2022/12/02 09:20:30;;;;;;;21.07;18.07;;;;;;;5.89;66.57;95392.34;5026630;28;20233;-68
2022/12/02 09:22:55;;;;;;;22.87;17.63;;;;;;;5.96;65.94;95396.22;5043272;28;20190;-68
2022/12/02 09:25:21;;;;;;;21.33;17.83;;;;;;;5.90;66.05;95386.19;5023843;28;20186;-69
2022/12/02 09:27:47;;;;;;;21.50;18.40;;;;;;;5.99;64.97;95378.63;5038743;28;20221;-68
2022/12/02 09:30:13;;;;;;;18.63;16.53;;;;;;;5.82;65.66;95379.88;5041367;28;20210;-68
2022/12/02 09:32:38;;;;;;;18.90;16.10;;;;;;;5.99;65.63;95378.63;5039977;28;20225;-67
2022/12/02 09:35:04;;;;;;;21.10;17.53;;;;;;;6.10;64.80;95383.91;5042234;28;20248;-68
2022/12/02 09:37:30;;;;;;;19.87;17.33;;;;;;;6.06;65.34;95380.69;5036993;28;20182;-68
2022/12/02 09:39:55;;;;;;;27.93;20.30;;;;;;;6.21;65.17;95377.88;5051609;28;20230;-68
2022/12/02 09:42:21;;;;;;;27.20;21.70;;;;;;;6.22;65.19;95382.13;5037474;28;20218;-66
2022/12/02 09:44:48;;;;;;;29.27;20.80;;;;;;;6.31;65.39;95384.91;5035741;28;20221;-71
2022/12/02 09:47:16;;;;;;;21.10;17.40;;;;;;;6.32;64.11;95377.88;5036315;28;20225;-68
2022/12/02 09:49:43;;;;;;;22.83;18.70;;;;;;;6.11;64.42;95380.34;5055333;28;20185;-68
2022/12/02 09:52:14;;;;;;;22.47;17.20;;;;;;;6.19;64.41;95381.41;5041374;28;20247;-67
2022/12/02 09:54:41;;;;;;;24.03;18.40;;;;;;;6.27;63.99;95383.47;5038168;28;20304;-70
2022/12/02 09:57:15;;;;;;;23.00;19.17;;;;;;;6.10;64.17;95381.31;5038637;28;20263;-68
2022/12/02 09:59:41;;;;;;;24.17;18.80;;;;;;;6.16;64.72;95371.22;5041165;28;20229;-68
2022/12/02 10:02:25;;;;;;;23.67;18.53;;;;;;;6.27;64.56;95372.19;5047063;28;20233;-70
2022/12/02 10:04:51;;;;;;;23.77;18.60;;;;;;;6.39;64.45;95371.25;5041638;28;20212;-70
2022/12/02 10:07:16;;;;;;;22.83;18.93;;;;;;;6.45;64.42;95380.41;5040341;28;20244;-70
2022/12/02 10:09:42;;;;;;;24.20;19.50;;;;;;;6.47;64.25;95374.13;5042314;28;20235;-70
2022/12/02 10:12:10;;;;;;;22.23;18.77;;;;;;;6.56;64.16;95370.78;5036894;28;20249;-70
2022/12/02 10:14:36;;;;;;;26.37;20.90;;;;;;;6.56;63.91;95357.72;5044211;28;20252;-70
2022/12/02 10:17:09;;;;;;;24.57;20.60;;;;;;;6.59;63.90;95356.66;5044289;28;20197;-68
2022/12/02 10:19:34;;;;;;;24.70;19.77;;;;;;;6.58;63.93;95357.59;5036889;28;20206;-69
2022/12/02 10:22:00;;;;;;;22.83;19.23;;;;;;;6.66;63.80;95359.63;5040996;28;20248;-68
2022/12/02 10:24:36;;;;;;;27.67;20.23;;;;;;;6.75;63.98;95361.50;5042635;28;20226;-67
2022/12/02 10:27:02;;;;;;;25.33;19.33;;;;;;;6.87;63.20;95355.34;5044065;28;20237;-68
2022/12/02 10:29:29;;;;;;;27.60;21.20;;;;;;;6.90;63.54;95354.25;5043958;28;20224;-69
2022/12/02 10:32:01;;;;;;;24.63;20.80;;;;;;;6.83;63.31;95352.09;5054984;28;20292;-68
2022/12/02 10:34:28;;;;;;;23.90;19.23;;;;;;;6.89;63.44;95355.19;5057866;28;20225;-68
2022/12/02 10:36:54;;;;;;;23.70;19.90;;;;;;;6.91;63.35;95356.75;5041034;28;20221;-68
2022/12/02 10:39:19;;;;;;;25.67;20.10;;;;;;;6.96;62.66;95361.63;5044992;28;20242;-69
2022/12/02 10:41:46;;;;;;;29.57;21.13;;;;;;;6.98;63.09;95363.16;5036473;28;20332;-66
2022/12/02 10:44:17;;;;;;;26.70;20.63;;;;;;;6.90;63.18;95354.25;5018334;28;20193;-66
2022/12/02 10:46:43;;;;;;;27.43;22.00;;;;;;;6.86;62.59;95351.03;5040171;28;20270;-68
2022/12/02 10:49:16;;;;;;;29.30;22.47;;;;;;;6.27;64.27;95353.91;5043273;28;20217;-70
2022/12/02 10:51:42;;;;;;;28.90;21.17;;;;;;;6.42;64.28;95359.75;5042250;28;20228;-70
2022/12/02 10:54:21;;;;;;;27.13;22.33;;;;;;;6.66;63.94;95357.84;5044256;28;20226;-71
2022/12/02 10:56:46;;;;;;;27.40;21.57;;;;;;;6.81;63.79;95347.94;5046522;28;20221;-70
2022/12/02 10:59:14;;;;;;;26.93;21.47;;;;;;;6.85;63.05;95346.78;5039940;28;20205;-70
2022/12/02 11:01:42;;;;;;;28.67;22.30;;;;;;;6.57;64.29;95348.09;5034904;28;20230;-70
2022/12/02 11:04:11;;;;;;;29.00;22.00;;;;;;;6.78;63.50;95350.81;5035662;28;20221;-70
2022/12/02 11:06:37;;;;;;;29.13;22.13;;;;;;;6.92;62.82;95344.50;5034275;28;20221;-70
2022/12/02 11:09:02;;;;;;;27.23;22.27;;;;;;;6.92;63.42;95357.56;5043473;28;20233;-70
2022/12/02 11:11:28;;;;;;;26.30;21.33;;;;;;;7.12;63.08;95342.94;5037160;28;20278;-70
2022/12/02 11:13:55;;;;;;;32.07;22.20;;;;;;;7.09;62.58;95349.22;5022270;28;20194;-70
2022/12/02 11:16:27;;;;;;;30.03;23.07;;;;;;;6.87;63.39;95347.50;5013287;28;20556;-70
2022/12/02 11:19:21;;;;;;;27.10;22.27;;;;;;;7.04;63.38;95354.81;5018493;28;20245;-70
2022/12/02 11:21:47;;;;;;;28.40;20.70;;;;;;;7.05;63.07;95353.03;5043695;28;20221;-70
2022/12/02 11:24:21;;;;;;;27.03;22.77;;;;;;;7.01;63.16;95355.06;5027321;28;20222;-70
2022/12/02 11:26:59;;;;;;;29.13;23.50;;;;;;;6.71;64.20;95367.91;5025590;28;20221;-70
2022/12/02 11:29:40;;;;;;;30.23;22.57;;;;;;;6.94;63.75;95374.78;5037931;28;20243;-70
2022/12/02 11:32:21;;;;;;;28.67;23.37;;;;;;;6.90;63.70;95370.78;5038425;28;20189;-70
2022/12/02 11:34:52;;;;;;;31.97;23.37;;;;;;;6.78;63.75;95362.09;5053046;28;20253;-70
2022/12/02 11:37:32;;;;;;;34.20;24.03;;;;;;;6.61;65.46;95373.03;5040376;28;20598;-70